createdAt,value
2023-01-04T00:00:40.107Z,101582.66
2023-01-04T00:03:09.755Z,101576.03
2023-01-04T00:05:39.260Z,101564.44
2023-01-04T00:08:08.664Z,101557.25
2023-01-04T00:10:40.747Z,101552.53
2023-01-04T00:13:10.123Z,101551.56
2023-01-04T00:15:39.632Z,101551.25
2023-01-04T00:18:09.083Z,101534.56
2023-01-04T00:20:38.467Z,101519.16
2023-01-04T00:23:07.831Z,101520.44
2023-01-04T00:25:37.163Z,101530.97
2023-01-04T00:28:09.324Z,101524.25
2023-01-04T00:30:38.655Z,101522.97
2023-01-04T00:33:07.987Z,101516.31
2023-01-04T00:35:45.892Z,101508.69
2023-01-04T00:38:15.822Z,101506.84
2023-01-04T00:40:45.234Z,101509.53
2023-01-04T00:43:17.228Z,101499.25
2023-01-04T00:45:46.642Z,101489.34
2023-01-04T00:48:16.107Z,101486.38
2023-01-04T00:50:46.479Z,101489.06
2023-01-04T00:53:16.483Z,101472.78
2023-01-04T00:55:46.307Z,101469.41
2023-01-04T00:58:18.321Z,101457.97
2023-01-04T01:00:47.686Z,101452.16
2023-01-04T01:03:17.197Z,101444.78
2023-01-04T01:05:46.669Z,101447.38
2023-01-04T01:08:28.246Z,101447.66
2023-01-04T01:10:58.234Z,101441.44
2023-01-04T01:13:30.248Z,101436.34
2023-01-04T01:15:59.753Z,101439.72
2023-01-04T01:18:29.217Z,101432.50
2023-01-04T01:20:58.579Z,101443.22
2023-01-04T01:23:28.557Z,101424.44
2023-01-04T01:26:02.308Z,101424.13
2023-01-04T01:28:34.543Z,101426.34
2023-01-04T01:31:10.096Z,101421.06
2023-01-04T01:33:40.020Z,101416.53
2023-01-04T01:36:11.236Z,101408.47
2023-01-04T01:38:41.540Z,101405.78
2023-01-04T01:41:14.793Z,101403.81
2023-01-04T01:44:08.893Z,101392.78
2023-01-04T01:46:42.966Z,101394.78
2023-01-04T01:49:21.099Z,101386.88
2023-01-04T01:51:50.839Z,101381.38
2023-01-04T01:54:26.873Z,101367.22
2023-01-04T01:57:00.659Z,101362.13
2023-01-04T01:59:35.034Z,101348.44
2023-01-04T02:02:04.721Z,101333.72
2023-01-04T02:04:34.756Z,101318.19
2023-01-04T02:07:05.261Z,101323.56
2023-01-04T02:09:35.929Z,101320.41
2023-01-04T02:12:05.325Z,101312.94
2023-01-04T02:14:37.419Z,101312.75
2023-01-04T02:17:12.428Z,101306.00
2023-01-04T02:20:20.160Z,101294.50
2023-01-04T02:23:25.271Z,101288.56
2023-01-04T02:26:26.892Z,101276.53
2023-01-04T02:29:22.038Z,101281.03
2023-01-04T02:31:57.762Z,101261.25
2023-01-04T02:34:38.354Z,101250.91
2023-01-04T02:37:18.757Z,101251.84
2023-01-04T02:39:56.711Z,101241.94
2023-01-04T02:42:47.269Z,101243.50
2023-01-04T02:45:20.194Z,101239.69
2023-01-04T02:48:04.758Z,101228.75
2023-01-04T02:50:37.536Z,101221.25
2023-01-04T02:53:08.941Z,101228.03
2023-01-04T02:55:53.593Z,101218.94
2023-01-04T02:58:38.925Z,101216.13
2023-01-04T03:01:29.725Z,101200.28
2023-01-04T03:04:33.211Z,101194.38
2023-01-04T03:07:06.390Z,101189.84
2023-01-04T03:09:41.536Z,101182.63
2023-01-04T03:12:30.977Z,101176.09
2023-01-04T03:15:04.239Z,101169.41
2023-01-04T03:17:40.589Z,101159.50
2023-01-04T03:20:16.191Z,101148.13
2023-01-04T03:23:03.889Z,101119.78
2023-01-04T03:25:50.490Z,101129.09
2023-01-04T03:28:35.330Z,101123.41
2023-01-04T03:31:23.891Z,101115.19
2023-01-04T03:34:14.891Z,101108.03
2023-01-04T03:36:57.426Z,101100.34
2023-01-04T03:39:50.034Z,101092.81
2023-01-04T03:42:37.819Z,101091.03
2023-01-04T03:45:30.232Z,101061.44
2023-01-04T03:48:19.304Z,101075.25
2023-01-04T03:50:53.948Z,101062.66
2023-01-04T03:53:27.563Z,101071.72
2023-01-04T03:55:58.381Z,101052.72
2023-01-04T03:58:28.511Z,101047.34
2023-01-04T04:01:03.458Z,101039.41
2023-01-04T04:03:46.204Z,101040.59
2023-01-04T04:06:28.162Z,101035.38
2023-01-04T04:09:00.123Z,101034.53
2023-01-04T04:11:35.665Z,101014.84
2023-01-04T04:14:05.123Z,101019.06
2023-01-04T04:16:34.554Z,101020.22
2023-01-04T04:19:08.551Z,101013.84
2023-01-04T04:21:39.006Z,101009.31
2023-01-04T04:24:20.862Z,100999.38
2023-01-04T04:26:50.419Z,101007.94
2023-01-04T04:29:19.947Z,101000.22
2023-01-04T04:31:49.460Z,100985.75
2023-01-04T04:34:18.879Z,100984.91
2023-01-04T04:36:48.360Z,100980.69
2023-01-04T04:39:20.697Z,100980.53
2023-01-04T04:41:47.484Z,100961.88
2023-01-04T04:44:18.593Z,100978.22
2023-01-04T04:46:48.713Z,100962.22
2023-01-04T04:49:19.429Z,100939.69
2023-01-04T04:51:49.831Z,100946.78
2023-01-04T04:54:23.965Z,100928.63
2023-01-04T04:56:53.429Z,100934.00
2023-01-04T04:59:22.956Z,100945.28
2023-01-04T05:01:52.456Z,100929.81
2023-01-04T05:04:22.032Z,100918.72
2023-01-04T05:06:53.013Z,100923.97
2023-01-04T05:09:24.998Z,100910.53
2023-01-04T05:12:06.952Z,100908.16
2023-01-04T05:14:36.325Z,100911.69
2023-01-04T05:17:05.923Z,100897.22
2023-01-04T05:19:35.908Z,100895.38
2023-01-04T05:22:05.291Z,100881.59
2023-01-04T05:24:37.256Z,100880.25
2023-01-04T05:27:06.737Z,100851.31
2023-01-04T05:29:48.613Z,100859.56
2023-01-04T05:32:18.075Z,100843.22
2023-01-04T05:34:47.598Z,100855.22
2023-01-04T05:37:16.962Z,100844.28
2023-01-04T05:39:48.881Z,100838.53
2023-01-04T05:42:30.457Z,100834.16
2023-01-04T05:45:01.328Z,100832.47
2023-01-04T05:47:31.981Z,100810.09
2023-01-04T05:50:01.476Z,100815.97
2023-01-04T05:52:31.115Z,100814.63
2023-01-04T05:55:03.199Z,100808.75
2023-01-04T05:57:32.791Z,100811.94
2023-01-04T06:00:02.296Z,100794.75
2023-01-04T06:02:43.682Z,100801.69
2023-01-04T06:05:13.832Z,100797.13
2023-01-04T06:07:44.038Z,100783.84
2023-01-04T06:10:17.437Z,100788.06
2023-01-04T06:12:48.228Z,100789.91
2023-01-04T06:15:18.106Z,100771.75
2023-01-04T06:17:47.462Z,100784.03
2023-01-04T06:20:17.093Z,100776.63
2023-01-04T06:22:46.451Z,100767.22
2023-01-04T06:25:18.690Z,100763.66
2023-01-04T06:27:48.250Z,100760.13
2023-01-04T06:30:17.723Z,100755.09
2023-01-04T06:32:47.122Z,100742.47
2023-01-04T06:35:16.640Z,100747.66
2023-01-04T06:37:46.098Z,100735.06
2023-01-04T06:40:18.142Z,100722.59
2023-01-04T06:42:47.515Z,100721.59
2023-01-04T06:45:18.163Z,100716.19
2023-01-04T06:47:48.152Z,100720.59
2023-01-04T06:50:17.736Z,100719.03
2023-01-04T06:52:47.069Z,100716.84
2023-01-04T06:55:19.168Z,100713.66
2023-01-04T06:57:48.554Z,100705.41
2023-01-04T07:00:18.843Z,100714.34
2023-01-04T07:03:12.780Z,100705.41
2023-01-04T07:05:37.723Z,100709.81
2023-01-04T07:08:08.388Z,100705.41
2023-01-04T07:10:41.243Z,100717.22
2023-01-04T07:13:11.565Z,100709.28
2023-01-04T07:15:41.545Z,100719.22
2023-01-04T07:18:11.513Z,100705.06
2023-01-04T07:20:41.431Z,100707.25
2023-01-04T07:23:11.260Z,100724.94
2023-01-04T07:25:43.330Z,100703.72
2023-01-04T07:28:12.693Z,100712.00
2023-01-04T07:30:42.123Z,100717.38
2023-01-04T07:33:11.640Z,100703.56
2023-01-04T07:35:41.048Z,100704.06
2023-01-04T07:38:10.591Z,100694.47
2023-01-04T07:40:55.930Z,100695.63
2023-01-04T07:43:28.912Z,100688.41
2023-01-04T07:45:58.743Z,100697.13
2023-01-04T07:48:29.681Z,100680.50
2023-01-04T07:50:59.224Z,100675.97
2023-01-04T07:53:28.680Z,100677.47
2023-01-04T07:55:59.316Z,100687.56
2023-01-04T07:58:35.110Z,100680.97
2023-01-04T08:01:11.323Z,100674.41
2023-01-04T08:03:41.183Z,100676.25
2023-01-04T08:06:12.638Z,100693.78
2023-01-04T08:08:42.433Z,100698.16
2023-01-04T08:11:14.519Z,100697.97
2023-01-04T08:13:46.631Z,100689.53
2023-01-04T08:16:23.567Z,100697.28
2023-01-04T08:18:56.779Z,100700.47
2023-01-04T08:21:26.308Z,100720.00
2023-01-04T08:23:56.469Z,100711.91
2023-01-04T08:26:25.922Z,100703.81
2023-01-04T08:28:58.774Z,100710.41
2023-01-04T08:31:31.024Z,100714.63
2023-01-04T08:34:01.190Z,100700.44
2023-01-04T08:36:32.238Z,100708.72
2023-01-04T08:39:03.375Z,100698.59
2023-01-04T08:41:57.924Z,100683.59
2023-01-04T08:44:27.412Z,100692.16
2023-01-04T08:46:58.968Z,100692.66
2023-01-04T08:49:28.732Z,100682.91
2023-01-04T08:51:58.212Z,100665.88
2023-01-04T08:54:27.653Z,100671.78
2023-01-04T08:56:57.075Z,100670.13
2023-01-04T08:59:29.851Z,100661.34
2023-01-04T09:02:05.167Z,100664.03
2023-01-04T09:04:35.841Z,100671.28
2023-01-04T09:07:05.282Z,100674.16
2023-01-04T09:09:34.775Z,100672.31
2023-01-04T09:12:04.251Z,100674.31
2023-01-04T09:14:36.691Z,100689.16
2023-01-04T09:17:06.889Z,100682.06
2023-01-04T09:19:36.398Z,100680.56
2023-01-04T09:22:06.388Z,100675.81
2023-01-04T09:24:36.368Z,100685.25
2023-01-04T09:27:05.897Z,100668.22
2023-01-04T09:29:37.967Z,100670.38
2023-01-04T09:32:12.939Z,100653.00
2023-01-04T09:34:45.656Z,100643.53
2023-01-04T09:37:15.124Z,100649.06
2023-01-04T09:39:45.765Z,100635.22
2023-01-04T09:42:22.744Z,100635.22
2023-01-04T09:47:55.904Z,100634.00
2023-01-04T09:50:28.213Z,100631.97
2023-01-04T09:53:07.899Z,100638.34
2023-01-04T09:55:41.764Z,100637.97
2023-01-04T09:58:22.306Z,100624.47
2023-01-04T10:00:58.415Z,100618.88
2023-01-04T10:03:32.557Z,100618.38
2023-01-04T10:06:03.338Z,100614.28
2023-01-04T10:08:33.969Z,100612.06
2023-01-04T10:11:23.321Z,100613.38
2023-01-04T10:14:11.272Z,100589.72
2023-01-04T10:17:20.244Z,100597.31
2023-01-04T10:23:11.554Z,100591.84
2023-01-04T10:25:49.248Z,100592.06
2023-01-04T10:28:32.073Z,100590.25
2023-01-04T10:31:38.397Z,100567.84
2023-01-04T10:34:12.698Z,100566.78
2023-01-04T10:36:45.531Z,100562.81
2023-01-04T10:39:19.207Z,100579.19
2023-01-04T10:41:55.129Z,100566.34
2023-01-04T10:44:31.123Z,100558.63
2023-01-04T10:47:08.805Z,100559.34
2023-01-04T10:49:45.915Z,100560.06
2023-01-04T10:52:20.073Z,100561.63
2023-01-04T10:54:54.679Z,100568.09
2023-01-04T10:57:29.439Z,100546.94
2023-01-04T11:00:04.668Z,100559.22
2023-01-04T11:02:43.477Z,100555.84
2023-01-04T11:05:21.049Z,100547.94
2023-01-04T11:07:55.059Z,100542.53
2023-01-04T11:10:29.501Z,100544.88
2023-01-04T11:12:58.978Z,100551.63
2023-01-04T11:15:28.381Z,100538.94
2023-01-04T11:17:58.478Z,100529.06
2023-01-04T11:20:34.496Z,100527.91
2023-01-04T11:23:12.114Z,100518.44
2023-01-04T11:25:55.273Z,100522.44
2023-01-04T11:28:29.191Z,100519.72
2023-01-04T11:31:06.667Z,100508.91
2023-01-04T11:33:54.151Z,100508.16
2023-01-04T11:36:43.939Z,100512.94
2023-01-04T11:39:22.495Z,100507.13
2023-01-04T11:42:03.241Z,100513.66
2023-01-04T11:44:34.594Z,100506.69
2023-01-04T11:47:11.841Z,100510.47
2023-01-04T11:49:41.264Z,100508.16
2023-01-04T11:52:32.278Z,100511.69
2023-01-04T11:55:19.976Z,100489.53
2023-01-04T11:57:49.370Z,100492.88
2023-01-04T12:00:19.919Z,100487.53
2023-01-04T12:03:04.690Z,100477.94
2023-01-04T12:05:35.068Z,100490.25
2023-01-04T12:08:07.511Z,100481.38
2023-01-04T12:10:36.965Z,100468.31
2023-01-04T12:13:06.333Z,100476.03
2023-01-04T12:15:44.601Z,100462.69
2023-01-04T12:18:19.576Z,100462.78
2023-01-04T12:20:49.096Z,100465.09
2023-01-04T12:23:21.485Z,100459.81
2023-01-04T12:25:53.894Z,100444.03
2023-01-04T12:28:39.790Z,100441.13
2023-01-04T12:31:34.193Z,100453.19
2023-01-04T12:34:34.333Z,100434.50
2023-01-04T12:37:05.880Z,100437.19
2023-01-04T12:39:47.581Z,100434.56
2023-01-04T12:42:22.012Z,100427.16
2023-01-04T12:45:24.268Z,100428.00
2023-01-04T12:48:08.032Z,100432.94
2023-01-04T12:51:30.105Z,100417.38
2023-01-04T12:53:59.882Z,100417.38
2023-01-04T12:56:59.453Z,100430.25
2023-01-04T12:59:39.717Z,100416.09
2023-01-04T13:02:22.737Z,100419.81
2023-01-04T13:05:09.690Z,100413.19
2023-01-04T13:07:46.697Z,100415.25
2023-01-04T13:10:22.481Z,100409.00
2023-01-04T13:13:16.158Z,100404.25
2023-01-04T13:16:02.210Z,100400.31
2023-01-04T13:18:38.123Z,100401.94
2023-01-04T13:21:14.928Z,100403.97
2023-01-04T13:23:51.486Z,100399.28
2023-01-04T13:26:38.986Z,100402.00
2023-01-04T13:29:20.240Z,100393.88
2023-01-04T13:31:58.191Z,100400.31
2023-01-04T13:34:31.747Z,100380.34
2023-01-04T13:37:10.893Z,100379.50
2023-01-04T13:39:43.785Z,100364.53
2023-01-04T13:42:20.171Z,100368.78
2023-01-04T13:45:23.328Z,100370.66
2023-01-04T13:47:59.754Z,100362.72
2023-01-04T13:50:36.392Z,100369.38
2023-01-04T13:53:08.857Z,100371.06
2023-01-04T13:55:39.578Z,100369.63
2023-01-04T13:58:19.326Z,100363.56
2023-01-04T14:00:53.685Z,100365.03
2023-01-04T14:03:35.342Z,100357.13
2023-01-04T14:06:28.647Z,100339.22
2023-01-04T14:09:05.048Z,100344.63
2023-01-04T14:11:50.623Z,100345.66
2023-01-04T14:14:33.901Z,100339.22
2023-01-04T14:17:25.905Z,100321.97
2023-01-04T14:19:59.898Z,100325.75
2023-01-04T14:22:31.544Z,100324.06
2023-01-04T14:27:52.267Z,100332.44
2023-01-04T14:30:28.735Z,100330.75
2023-01-04T14:33:00.732Z,100328.50
2023-01-04T14:35:33.344Z,100332.22
2023-01-04T14:38:05.532Z,100334.75
2023-01-04T14:40:35.199Z,100323.31
2023-01-04T14:43:04.598Z,100308.16
2023-01-04T14:45:33.995Z,100318.59
2023-01-04T14:48:03.352Z,100311.94
2023-01-04T14:50:35.386Z,100315.28
2023-01-04T14:53:05.445Z,100312.09
2023-01-04T14:55:34.784Z,100312.88
2023-01-04T14:58:04.117Z,100303.69
2023-01-04T15:00:33.416Z,100317.00
2023-01-04T15:03:03.538Z,100315.59
2023-01-04T15:05:37.946Z,100315.19
2023-01-04T15:08:07.838Z,100320.16
2023-01-04T15:10:37.365Z,100303.94
2023-01-04T15:13:07.395Z,100309.16
2023-01-04T15:15:36.893Z,100321.94
2023-01-04T15:18:06.586Z,100314.88
2023-01-04T15:20:42.010Z,100316.97
2023-01-04T15:23:11.618Z,100302.59
2023-01-04T15:25:41.946Z,100295.31
2023-01-04T15:28:11.327Z,100299.91
2023-01-04T15:30:44.147Z,100299.91
2023-01-04T15:33:13.616Z,100309.97
2023-01-04T15:35:45.777Z,100330.16
2023-01-04T15:38:18.393Z,100312.09
2023-01-04T15:40:48.421Z,100316.22
2023-01-04T15:43:15.233Z,100318.34
2023-01-04T15:45:45.409Z,100309.56
2023-01-04T15:48:15.163Z,100325.19
2023-01-04T15:50:47.132Z,100309.38
2023-01-04T15:53:17.078Z,100312.09
2023-01-04T15:55:46.905Z,100314.19
2023-01-04T15:58:16.494Z,100319.38
2023-01-04T16:00:50.512Z,100319.38
2023-01-04T16:03:23.706Z,100319.19
2023-01-04T16:05:55.681Z,100324.59
2023-01-04T16:08:25.017Z,100306.44
2023-01-04T16:10:54.375Z,100316.63
2023-01-04T16:13:24.329Z,100308.09
2023-01-04T16:15:53.751Z,100312.50
2023-01-04T16:18:27.526Z,100311.06
2023-01-04T16:21:02.453Z,100301.25
2023-01-04T16:23:31.917Z,100299.13
2023-01-04T16:26:09.698Z,100296.69
2023-01-04T16:28:39.501Z,100296.72
2023-01-04T16:31:10.264Z,100294.63
2023-01-04T16:33:39.744Z,100295.22
2023-01-04T16:36:14.145Z,100287.31
2023-01-04T16:38:46.378Z,100293.97
2023-01-04T16:41:17.555Z,100292.50
2023-01-04T16:43:49.215Z,100296.06
2023-01-04T16:46:26.530Z,100278.78
2023-01-04T16:48:58.906Z,100286.94
2023-01-04T16:51:33.578Z,100272.59
2023-01-04T16:54:05.538Z,100277.16
2023-01-04T16:56:35.759Z,100272.56
2023-01-04T16:59:05.451Z,100258.13
2023-01-04T17:01:40.895Z,100254.59
2023-01-04T17:04:17.491Z,100254.38
2023-01-04T17:06:52.129Z,100241.88
2023-01-04T17:09:22.441Z,100246.06
2023-01-04T17:12:36.801Z,100241.06
2023-01-04T17:15:14.871Z,100245.88
2023-01-04T17:17:42.318Z,100241.31
2023-01-04T17:20:12.349Z,100246.75
2023-01-04T17:22:44.313Z,100247.75
2023-01-04T17:25:15.131Z,100254.00
2023-01-04T17:27:44.669Z,100246.91
2023-01-04T17:30:14.775Z,100256.50
2023-01-04T17:32:44.274Z,100252.50
2023-01-04T17:35:13.747Z,100253.78
2023-01-04T17:37:45.749Z,100268.56
2023-01-04T17:40:22.433Z,100272.59
2023-01-04T17:42:52.505Z,100261.94
2023-01-04T17:45:22.399Z,100262.59
2023-01-04T17:47:52.478Z,100254.41
2023-01-04T17:50:22.127Z,100247.09
2023-01-04T17:52:54.119Z,100239.66
2023-01-04T17:55:23.553Z,100247.16
2023-01-04T17:57:52.951Z,100254.09
2023-01-04T18:00:23.067Z,100261.81
2023-01-04T18:02:52.575Z,100257.78
2023-01-04T18:05:21.976Z,100251.34
2023-01-04T18:07:54.053Z,100249.94
2023-01-04T18:10:40.842Z,100242.22
2023-01-04T18:13:13.019Z,100250.97
2023-01-04T18:15:55.108Z,100247.25
2023-01-04T18:18:32.699Z,100240.97
2023-01-04T18:21:27.357Z,100233.81
2023-01-04T18:24:34.737Z,100236.31
2023-01-04T18:29:42.043Z,100230.06
2023-01-04T18:32:11.559Z,100223.34
2023-01-04T18:34:41.030Z,100236.66
2023-01-04T18:37:10.367Z,100228.91
2023-01-04T18:39:42.353Z,100243.06
2023-01-04T18:42:12.008Z,100245.22
2023-01-04T18:44:47.936Z,100252.31
2023-01-04T18:47:19.979Z,100243.56
2023-01-04T18:49:49.773Z,100244.16
2023-01-04T18:52:20.064Z,100244.97
2023-01-04T18:54:52.096Z,100224.16
2023-01-04T18:57:21.506Z,100225.81
2023-01-04T18:59:51.738Z,100225.63
2023-01-04T19:02:22.716Z,100227.50
2023-01-04T19:04:52.222Z,100216.44
2023-01-04T19:07:21.619Z,100225.00
2023-01-04T19:09:53.737Z,100234.94
2023-01-04T19:12:23.364Z,100221.41
2023-01-04T19:14:52.701Z,100221.00
2023-01-04T19:17:24.609Z,100231.84
2023-01-04T19:19:54.390Z,100225.22
2023-01-04T19:22:23.741Z,100220.41
2023-01-04T19:24:55.756Z,100232.91
2023-01-04T19:27:25.147Z,100231.03
2023-01-04T19:29:54.517Z,100225.00
2023-01-04T19:32:26.210Z,100230.63
2023-01-04T19:34:59.436Z,100218.94
2023-01-04T19:37:28.889Z,100232.72
2023-01-04T19:40:00.875Z,100219.16
2023-01-04T19:42:30.646Z,100215.78
2023-01-04T19:45:00.128Z,100223.06
2023-01-04T19:47:29.583Z,100221.19
2023-01-04T19:49:59.997Z,100219.94
2023-01-04T19:52:34.317Z,100226.13
2023-01-04T19:55:07.275Z,100222.59
2023-01-04T19:57:36.663Z,100206.56
2023-01-04T20:00:07.275Z,100210.16
2023-01-04T20:02:37.261Z,100214.09
2023-01-04T20:05:07.202Z,100212.84
2023-01-04T20:07:36.887Z,100226.75
2023-01-04T20:10:14.153Z,100229.00
2023-01-04T20:12:44.115Z,100233.06
2023-01-04T20:15:14.322Z,100245.81
2023-01-04T20:17:43.811Z,100232.22
2023-01-04T20:20:13.608Z,100227.00
2023-01-04T20:22:43.038Z,100223.94
2023-01-04T20:25:15.128Z,100239.19
2023-01-04T20:27:44.531Z,100233.38
2023-01-04T20:30:15.037Z,100236.47
2023-01-04T20:32:44.465Z,100239.59
2023-01-04T20:35:14.426Z,100241.00
2023-01-04T20:37:43.796Z,100251.22
2023-01-04T20:40:15.946Z,100245.53
2023-01-04T20:42:57.967Z,100247.66
2023-01-04T20:45:27.362Z,100246.59
2023-01-04T20:47:56.833Z,100232.06
2023-01-04T20:50:26.198Z,100234.31
2023-01-04T20:52:55.576Z,100245.63
2023-01-04T20:55:27.530Z,100237.34
2023-01-04T20:57:57.152Z,100266.13
2023-01-04T21:00:26.946Z,100263.59
2023-01-04T21:02:56.488Z,100258.41
2023-01-04T21:05:25.996Z,100260.66
2023-01-04T21:07:55.412Z,100255.25
2023-01-04T21:10:27.432Z,100253.56
2023-01-04T21:12:56.843Z,100273.56
2023-01-04T21:15:26.328Z,100265.91
2023-01-04T21:17:55.789Z,100266.72
2023-01-04T21:20:25.228Z,100273.34
2023-01-04T21:22:54.664Z,100282.69
2023-01-04T21:25:24.078Z,100319.25
2023-01-04T21:27:56.375Z,100284.94
2023-01-04T21:30:25.738Z,100265.19
2023-01-04T21:33:01.430Z,100292.06
2023-01-04T21:35:31.586Z,100281.28
2023-01-04T21:38:01.026Z,100274.94
2023-01-04T21:40:31.104Z,100269.00
2023-01-04T21:43:03.097Z,100287.97
2023-01-04T21:45:32.576Z,100272.41
2023-01-04T21:48:02.011Z,100285.97
2023-01-04T21:50:32.276Z,100299.50
2023-01-04T21:53:02.320Z,100289.91
2023-01-04T21:55:34.881Z,100293.75
2023-01-04T21:58:07.192Z,100284.34
2023-01-04T22:00:36.667Z,100300.56
2023-01-04T22:03:06.079Z,100295.34
2023-01-04T22:05:35.590Z,100289.28
2023-01-04T22:08:04.938Z,100293.22
2023-01-04T22:10:34.347Z,100299.38
2023-01-04T22:13:03.857Z,100290.88
2023-01-04T22:15:36.013Z,100291.38
2023-01-04T22:18:06.941Z,100281.13
2023-01-04T22:20:36.585Z,100282.97
2023-01-04T22:23:06.279Z,100274.94
2023-01-04T22:25:36.490Z,100281.72
2023-01-04T22:28:06.285Z,100281.66
2023-01-04T22:30:42.355Z,100286.78
2023-01-04T22:33:11.819Z,100286.31
2023-01-04T22:35:42.058Z,100276.03
2023-01-04T22:38:11.495Z,100299.88
2023-01-04T22:40:41.410Z,100290.69
2023-01-04T22:43:11.622Z,100299.25
2023-01-04T22:45:43.810Z,100306.75
2023-01-04T22:48:13.214Z,100313.84
2023-01-04T22:50:42.682Z,100317.94
2023-01-04T22:53:12.165Z,100324.78
2023-01-04T22:58:32.097Z,100322.78
2023-01-04T23:01:04.339Z,100331.06
2023-01-04T23:03:35.095Z,100330.81
2023-01-04T23:06:07.495Z,100327.72
2023-01-04T23:08:37.102Z,100322.31
2023-01-04T23:11:08.211Z,100333.59
2023-01-04T23:13:38.173Z,100327.81
2023-01-04T23:16:13.784Z,100315.06
2023-01-04T23:18:43.698Z,100313.59
2023-01-04T23:21:13.984Z,100325.88
2023-01-04T23:23:43.643Z,100326.50
2023-01-04T23:26:16.867Z,100324.09
2023-01-04T23:28:47.502Z,100331.81
2023-01-04T23:31:22.015Z,100320.34
2023-01-04T23:33:55.367Z,100330.13
2023-01-04T23:36:26.507Z,100329.59
2023-01-04T23:38:57.729Z,100332.06
2023-01-04T23:41:44.462Z,100337.97
2023-01-04T23:46:58.709Z,100330.63
2023-01-04T23:49:29.731Z,100337.84
2023-01-04T23:51:59.586Z,100330.25
2023-01-04T23:54:29.468Z,100334.75
2023-01-04T23:57:00.352Z,100340.25
2023-01-04T23:59:29.997Z,100340.13
